createdAt,value
2017-10-07T00:02:04.105Z,11.40
2017-10-07T00:04:31.693Z,11.40
2017-10-07T00:07:00.097Z,11.40
2017-10-07T00:09:27.775Z,11.40
2017-10-07T00:11:55.353Z,11.40
2017-10-07T00:14:22.904Z,11.40
2017-10-07T00:16:50.503Z,11.40
2017-10-07T00:19:18.052Z,11.40
2017-10-07T00:21:45.631Z,11.40
2017-10-07T00:24:13.231Z,11.40
2017-10-07T00:26:41.595Z,11.40
2017-10-07T00:29:09.942Z,11.40
2017-10-07T00:31:37.542Z,11.40
2017-10-07T00:34:05.881Z,11.40
2017-10-07T00:36:33.472Z,11.40
2017-10-07T00:39:01.694Z,11.40
2017-10-07T00:41:29.271Z,11.40
2017-10-07T00:43:56.855Z,11.40
2017-10-07T00:46:24.440Z,11.50
2017-10-07T00:48:52.116Z,11.40
2017-10-07T00:51:20.022Z,11.40
2017-10-07T00:53:47.813Z,11.50
2017-10-07T00:56:15.378Z,11.50
2017-10-07T00:58:43.754Z,11.40
2017-10-07T01:01:11.377Z,11.40
2017-10-07T01:03:39.727Z,11.50
2017-10-07T01:06:07.306Z,11.50
2017-10-07T01:08:34.907Z,11.40
2017-10-07T01:11:03.261Z,11.40
2017-10-07T01:13:30.846Z,11.40
2017-10-07T01:15:58.441Z,11.40
2017-10-07T01:18:26.021Z,11.40
2017-10-07T01:20:53.615Z,11.40
2017-10-07T01:23:22.149Z,11.40
2017-10-07T01:25:49.699Z,11.40
2017-10-07T01:28:17.271Z,11.40
2017-10-07T01:30:44.910Z,11.40
2017-10-07T01:33:13.266Z,11.40
2017-10-07T01:35:40.821Z,11.40
2017-10-07T01:38:09.216Z,11.30
2017-10-07T01:40:36.782Z,11.30
2017-10-07T01:43:05.871Z,11.30
2017-10-07T01:45:33.521Z,11.30
2017-10-07T01:48:01.125Z,11.40
2017-10-07T01:50:29.453Z,11.30
2017-10-07T01:52:57.045Z,11.30
2017-10-07T01:55:24.629Z,11.30
2017-10-07T01:57:52.345Z,11.30
2017-10-07T02:00:19.973Z,11.30
2017-10-07T02:02:48.328Z,11.30
2017-10-07T02:05:15.913Z,11.30
2017-10-07T02:07:44.290Z,11.30
2017-10-07T02:10:11.840Z,11.30
2017-10-07T02:12:39.421Z,11.30
2017-10-07T02:15:07.817Z,11.20
2017-10-07T02:17:36.141Z,11.20
2017-10-07T02:20:03.793Z,11.20
2017-10-07T02:22:31.400Z,11.20
2017-10-07T02:24:58.972Z,11.20
2017-10-07T02:27:26.548Z,11.20
2017-10-07T02:29:54.916Z,11.10
2017-10-07T02:32:24.034Z,11.10
2017-10-07T02:34:52.519Z,11.10
2017-10-07T02:37:20.872Z,11.10
2017-10-07T02:39:48.439Z,11.10
2017-10-07T02:42:16.015Z,11.10
2017-10-07T02:44:43.660Z,11.10
2017-10-07T02:47:11.249Z,11.10
2017-10-07T02:49:39.591Z,11.20
2017-10-07T02:52:07.191Z,11.20
2017-10-07T02:54:34.763Z,11.10
2017-10-07T02:57:03.103Z,11.10
2017-10-07T02:59:30.699Z,11.10
2017-10-07T03:01:58.286Z,11.10
2017-10-07T03:04:26.643Z,11.10
2017-10-07T03:06:54.368Z,11.10
2017-10-07T03:09:22.019Z,11.10
2017-10-07T03:11:49.590Z,11.10
2017-10-07T03:14:17.963Z,11.20
2017-10-07T03:16:45.577Z,11.10
2017-10-07T03:19:13.129Z,11.10
2017-10-07T03:21:40.734Z,11.00
2017-10-07T03:24:09.061Z,11.00
2017-10-07T03:26:37.569Z,11.00
2017-10-07T03:29:05.261Z,11.00
2017-10-07T03:31:32.844Z,11.00
2017-10-07T03:34:00.415Z,11.00
2017-10-07T03:36:28.014Z,11.10
2017-10-07T03:38:57.782Z,11.00
2017-10-07T03:41:27.078Z,11.00
2017-10-07T03:43:55.655Z,11.00
2017-10-07T03:46:24.660Z,11.00
2017-10-07T03:48:52.980Z,11.00
2017-10-07T03:51:20.592Z,10.90
2017-10-07T03:53:48.916Z,10.90
2017-10-07T03:56:16.487Z,10.90
2017-10-07T03:58:44.115Z,10.90
2017-10-07T04:01:12.465Z,10.90
2017-10-07T04:03:40.041Z,10.90
2017-10-07T04:06:07.664Z,10.90
2017-10-07T04:08:35.267Z,10.90
2017-10-07T04:11:03.719Z,10.90
2017-10-07T04:13:31.318Z,10.90
2017-10-07T04:15:58.882Z,10.90
2017-10-07T04:18:26.467Z,11.00
2017-10-07T04:20:54.860Z,10.90
2017-10-07T04:23:22.556Z,10.90
2017-10-07T04:25:50.137Z,10.90
2017-10-07T04:28:17.747Z,10.90
2017-10-07T04:30:46.065Z,11.00
2017-10-07T04:33:13.645Z,10.90
2017-10-07T04:35:41.254Z,10.90
2017-10-07T04:38:09.586Z,11.00
2017-10-07T04:40:37.173Z,11.00
2017-10-07T04:43:04.811Z,11.00
2017-10-07T04:45:32.368Z,11.00
2017-10-07T04:47:59.921Z,11.00
2017-10-07T04:50:27.558Z,11.00
2017-10-07T04:52:55.995Z,11.00
2017-10-07T04:55:23.548Z,11.00
2017-10-07T04:57:51.142Z,11.00
2017-10-07T05:00:18.802Z,11.00
2017-10-07T05:02:46.543Z,11.00
2017-10-07T05:05:14.168Z,11.10
2017-10-07T05:07:42.485Z,11.00
2017-10-07T05:10:10.089Z,11.00
2017-10-07T05:12:37.965Z,11.00
2017-10-07T05:15:05.520Z,11.00
2017-10-07T05:17:33.101Z,11.00
2017-10-07T05:20:01.482Z,11.00
2017-10-07T05:22:29.949Z,11.00
2017-10-07T05:24:58.197Z,11.00
2017-10-07T05:27:25.813Z,11.00
2017-10-07T05:29:54.162Z,11.00
2017-10-07T05:32:21.723Z,11.00
2017-10-07T05:34:49.327Z,11.00
2017-10-07T05:37:17.857Z,10.90
2017-10-07T05:39:45.444Z,11.00
2017-10-07T05:42:13.062Z,11.00
2017-10-07T05:44:40.631Z,11.00
2017-10-07T05:47:09.020Z,11.00
2017-10-07T05:49:36.615Z,11.00
2017-10-07T05:52:04.191Z,11.00
2017-10-07T05:54:31.775Z,11.00
2017-10-07T05:56:59.369Z,11.00
2017-10-07T05:59:26.927Z,11.10
2017-10-07T06:01:55.245Z,11.10
2017-10-07T06:04:22.847Z,11.10
2017-10-07T06:06:51.201Z,11.10
2017-10-07T06:09:18.796Z,11.00
2017-10-07T06:11:47.152Z,11.00
2017-10-07T06:14:14.737Z,11.00
2017-10-07T06:16:43.070Z,11.10
2017-10-07T06:19:10.679Z,11.10
2017-10-07T06:21:38.243Z,11.10
2017-10-07T06:24:05.819Z,11.10
2017-10-07T06:26:34.242Z,11.10
2017-10-07T06:29:01.815Z,11.10
2017-10-07T06:31:29.390Z,11.10
2017-10-07T06:33:57.810Z,11.10
2017-10-07T06:36:26.132Z,11.10
2017-10-07T06:38:53.699Z,11.20
2017-10-07T06:41:21.326Z,11.20
2017-10-07T06:43:50.674Z,11.20
2017-10-07T06:46:18.256Z,11.20
2017-10-07T06:48:45.869Z,11.30
2017-10-07T06:51:14.203Z,11.30
2017-10-07T06:53:41.795Z,11.30
2017-10-07T06:56:10.167Z,11.40
2017-10-07T06:58:37.732Z,11.40
2017-10-07T07:01:05.316Z,11.40
2017-10-07T07:03:33.674Z,11.30
2017-10-07T07:06:01.247Z,11.30
2017-10-07T07:08:28.811Z,11.20
2017-10-07T07:10:56.425Z,11.30
2017-10-07T07:13:23.990Z,11.30
2017-10-07T07:15:51.607Z,11.30
2017-10-07T07:18:19.192Z,11.30
2017-10-07T07:20:47.513Z,11.40
2017-10-07T07:23:15.073Z,11.40
2017-10-07T07:25:43.566Z,11.40
2017-10-07T07:28:11.176Z,11.50
2017-10-07T07:30:39.603Z,11.60
2017-10-07T07:33:07.217Z,11.50
2017-10-07T07:35:35.573Z,11.70
2017-10-07T07:38:03.148Z,11.70
2017-10-07T07:40:30.787Z,11.80
2017-10-07T07:42:58.404Z,11.80
2017-10-07T07:45:25.978Z,11.90
2017-10-07T07:47:54.343Z,11.90
2017-10-07T07:50:22.685Z,12.00
2017-10-07T07:52:50.238Z,12.00
2017-10-07T07:55:17.853Z,12.10
2017-10-07T07:57:46.191Z,12.00
2017-10-07T08:00:13.748Z,12.00
2017-10-07T08:02:41.379Z,12.10
2017-10-07T08:05:09.714Z,12.20
2017-10-07T08:07:37.282Z,12.10
2017-10-07T08:10:04.906Z,12.20
2017-10-07T08:12:32.691Z,12.20
2017-10-07T08:15:00.292Z,12.20
2017-10-07T08:17:27.893Z,12.20
2017-10-07T08:19:55.462Z,12.30
2017-10-07T08:22:23.125Z,12.30
2017-10-07T08:24:50.699Z,12.20
2017-10-07T08:27:18.295Z,12.30
2017-10-07T08:29:45.851Z,12.30
2017-10-07T08:32:13.466Z,12.40
2017-10-07T08:34:41.821Z,12.60
2017-10-07T08:37:09.376Z,12.50
2017-10-07T08:39:36.943Z,12.60
2017-10-07T08:42:04.578Z,12.60
2017-10-07T08:44:32.169Z,12.60
2017-10-07T08:46:59.782Z,12.60
2017-10-07T08:49:28.166Z,12.50
2017-10-07T08:51:55.960Z,12.50
2017-10-07T08:54:23.567Z,12.40
2017-10-07T08:56:51.163Z,12.40
2017-10-07T08:59:18.752Z,12.30
2017-10-07T09:01:47.146Z,12.30
2017-10-07T09:04:15.056Z,12.30
2017-10-07T09:06:43.416Z,12.20
2017-10-07T09:09:11.020Z,12.20
2017-10-07T09:11:38.653Z,12.10
2017-10-07T09:14:06.231Z,12.20
2017-10-07T09:16:33.844Z,12.10
2017-10-07T09:19:01.429Z,12.10
2017-10-07T09:21:28.988Z,12.20
2017-10-07T09:23:56.595Z,12.10
2017-10-07T09:26:24.152Z,12.50
2017-10-07T09:28:51.742Z,12.80
2017-10-07T09:31:19.701Z,13.10
2017-10-07T09:33:48.059Z,14.00
2017-10-07T09:36:15.620Z,14.00
2017-10-07T09:38:43.996Z,14.60
2017-10-07T09:41:11.552Z,14.50
2017-10-07T09:43:39.963Z,14.60
2017-10-07T09:46:08.236Z,14.70
2017-10-07T09:48:35.798Z,14.50
2017-10-07T09:51:03.352Z,14.50
2017-10-07T09:53:30.965Z,14.50
2017-10-07T09:55:59.270Z,14.40
2017-10-07T09:58:26.846Z,14.40
2017-10-07T10:00:54.439Z,14.30
2017-10-07T10:03:22.004Z,14.30
2017-10-07T10:05:49.611Z,14.30
2017-10-07T10:08:17.202Z,14.10
2017-10-07T10:10:44.785Z,13.50
2017-10-07T10:13:12.354Z,13.00
2017-10-07T10:15:39.977Z,12.80
2017-10-07T10:18:07.532Z,12.60
2017-10-07T10:20:35.116Z,12.60
2017-10-07T10:23:02.733Z,12.40
2017-10-07T10:25:31.101Z,12.10
2017-10-07T10:27:58.674Z,12.10
2017-10-07T10:30:26.283Z,11.90
2017-10-07T10:32:53.836Z,11.80
2017-10-07T10:35:21.404Z,11.80
2017-10-07T10:37:48.992Z,11.70
2017-10-07T10:40:16.549Z,11.70
2017-10-07T10:42:44.108Z,11.70
2017-10-07T10:45:11.773Z,11.60
2017-10-07T10:47:39.332Z,11.60
2017-10-07T10:50:06.899Z,11.60
2017-10-07T10:52:34.517Z,11.50
2017-10-07T10:55:02.860Z,11.40
2017-10-07T10:57:30.426Z,11.40
2017-10-07T10:59:58.033Z,11.40
2017-10-07T11:02:26.366Z,11.30
2017-10-07T11:04:53.964Z,11.30
2017-10-07T11:07:21.567Z,11.30
2017-10-07T11:09:49.184Z,11.30
2017-10-07T11:12:16.785Z,11.30
2017-10-07T11:14:46.115Z,11.30
2017-10-07T11:17:14.316Z,11.40
2017-10-07T11:19:41.985Z,11.30
2017-10-07T11:22:09.584Z,11.20
2017-10-07T11:24:37.921Z,11.20
2017-10-07T11:27:05.492Z,11.20
2017-10-07T11:29:33.088Z,11.20
2017-10-07T11:32:00.676Z,11.20
2017-10-07T11:34:28.237Z,11.10
2017-10-07T11:36:56.618Z,11.20
2017-10-07T11:39:24.230Z,11.10
2017-10-07T11:41:51.807Z,11.10
2017-10-07T11:44:19.424Z,11.20
2017-10-07T11:46:47.036Z,11.20
2017-10-07T11:49:14.610Z,11.10
2017-10-07T11:51:42.225Z,11.10
2017-10-07T11:54:09.809Z,11.10
2017-10-07T11:56:37.565Z,11.00
2017-10-07T11:59:05.468Z,11.10
2017-10-07T12:01:33.854Z,11.00
2017-10-07T12:04:01.427Z,11.00
2017-10-07T12:06:29.067Z,11.10
2017-10-07T12:09:02.653Z,11.10
2017-10-07T12:11:30.221Z,11.00
2017-10-07T12:13:57.838Z,11.00
2017-10-07T12:16:26.227Z,11.00
2017-10-07T12:18:54.774Z,11.00
2017-10-07T12:21:22.373Z,10.90
2017-10-07T12:23:50.689Z,11.00
2017-10-07T12:26:18.241Z,10.90
2017-10-07T12:28:46.271Z,11.00
2017-10-07T12:31:13.840Z,11.00
2017-10-07T12:33:41.415Z,11.00
2017-10-07T12:36:09.800Z,11.10
2017-10-07T12:38:38.231Z,11.10
2017-10-07T12:41:06.589Z,11.10
2017-10-07T12:43:34.202Z,11.20
2017-10-07T12:46:01.752Z,11.10
2017-10-07T12:48:29.325Z,11.10
2017-10-07T12:50:57.001Z,11.10
2017-10-07T12:53:24.552Z,11.10
2017-10-07T12:55:52.119Z,11.10
2017-10-07T12:58:19.742Z,11.10
2017-10-07T13:00:47.339Z,11.20
2017-10-07T13:03:14.935Z,11.20
2017-10-07T13:05:42.521Z,11.20
2017-10-07T13:08:10.859Z,11.10
2017-10-07T13:10:38.457Z,11.10
2017-10-07T13:13:06.043Z,11.20
2017-10-07T13:15:33.656Z,11.20
2017-10-07T13:18:01.247Z,11.10
2017-10-07T13:20:29.644Z,11.10
2017-10-07T13:22:58.009Z,11.10
2017-10-07T13:25:26.361Z,11.20
2017-10-07T13:27:53.946Z,11.20
2017-10-07T13:30:21.567Z,11.20
2017-10-07T13:32:49.423Z,11.10
2017-10-07T13:35:16.976Z,11.10
2017-10-07T13:37:44.593Z,11.20
2017-10-07T13:43:16.175Z,11.20
2017-10-07T13:45:43.798Z,11.20
2017-10-07T13:48:12.652Z,11.30
2017-10-07T13:50:40.313Z,11.30
2017-10-07T13:53:08.943Z,11.40
2017-10-07T13:55:40.038Z,11.40
2017-10-07T13:58:08.467Z,11.40
2017-10-07T14:00:36.643Z,11.30
2017-10-07T14:03:04.223Z,11.50
2017-10-07T14:05:31.842Z,11.50
2017-10-07T14:08:00.186Z,11.50
2017-10-07T14:10:27.772Z,11.40
2017-10-07T14:12:56.197Z,11.50
2017-10-07T14:15:23.795Z,11.50
2017-10-07T14:17:51.945Z,11.50
2017-10-07T14:20:19.559Z,11.50
2017-10-07T14:22:47.193Z,11.60
2017-10-07T14:25:14.874Z,11.60
2017-10-07T14:27:42.460Z,11.70
2017-10-07T14:30:10.804Z,11.70
2017-10-07T14:32:38.421Z,11.60
2017-10-07T14:35:07.325Z,11.60
2017-10-07T14:37:34.929Z,11.60
2017-10-07T14:40:02.595Z,11.60
2017-10-07T14:42:30.270Z,11.60
2017-10-07T14:44:57.874Z,11.60
2017-10-07T14:47:25.455Z,11.60
2017-10-07T14:49:53.347Z,11.60
2017-10-07T14:52:21.023Z,11.60
2017-10-07T14:54:48.586Z,11.50
2017-10-07T14:57:16.205Z,11.60
2017-10-07T14:59:43.846Z,11.60
2017-10-07T15:02:11.420Z,11.60
2017-10-07T15:04:39.012Z,11.60
2017-10-07T15:07:06.587Z,11.60
2017-10-07T15:09:34.237Z,11.60
2017-10-07T15:12:01.916Z,11.60
2017-10-07T15:14:29.790Z,11.60
2017-10-07T15:16:57.391Z,11.60
2017-10-07T15:19:24.977Z,11.60
2017-10-07T15:21:52.552Z,11.70
2017-10-07T15:24:20.881Z,11.60
2017-10-07T15:26:48.461Z,11.50
2017-10-07T15:29:16.110Z,11.60
2017-10-07T15:31:43.924Z,11.60
2017-10-07T15:34:11.534Z,11.60
2017-10-07T15:36:39.120Z,11.60
2017-10-07T15:39:07.524Z,11.60
2017-10-07T15:41:35.262Z,11.60
2017-10-07T15:44:02.857Z,11.60
2017-10-07T15:46:30.435Z,11.60
2017-10-07T15:48:58.991Z,11.70
2017-10-07T15:51:26.611Z,11.60
2017-10-07T15:53:54.183Z,11.60
2017-10-07T15:56:21.794Z,11.70
2017-10-07T15:58:49.348Z,11.70
2017-10-07T16:01:16.944Z,11.70
2017-10-07T16:03:45.307Z,11.60
2017-10-07T16:06:12.868Z,11.60
2017-10-07T16:08:40.463Z,11.70
2017-10-07T16:11:08.861Z,11.70
2017-10-07T16:13:36.441Z,11.70
2017-10-07T16:16:04.048Z,11.60
2017-10-07T16:18:31.675Z,11.60
2017-10-07T16:20:59.456Z,11.60
2017-10-07T16:23:27.063Z,11.60
2017-10-07T16:25:54.661Z,11.60
2017-10-07T16:28:22.271Z,11.60
2017-10-07T16:30:49.883Z,11.60
2017-10-07T16:33:17.459Z,11.70
2017-10-07T16:35:45.343Z,11.70
2017-10-07T16:38:12.897Z,11.60
2017-10-07T16:40:40.505Z,11.60
2017-10-07T16:43:08.259Z,11.60
2017-10-07T16:45:38.702Z,11.60
2017-10-07T16:48:06.352Z,11.60
2017-10-07T16:50:33.931Z,11.70
2017-10-07T16:53:01.535Z,11.70
2017-10-07T16:55:31.028Z,11.60
2017-10-07T16:57:59.423Z,11.60
2017-10-07T17:00:27.804Z,11.60
2017-10-07T17:02:55.375Z,11.60
2017-10-07T17:05:22.985Z,11.70
2017-10-07T17:07:50.577Z,11.70
2017-10-07T17:10:18.950Z,11.60
2017-10-07T17:12:46.527Z,11.60
2017-10-07T17:15:14.146Z,11.60
2017-10-07T17:17:41.863Z,11.70
2017-10-07T17:20:10.201Z,11.60
2017-10-07T17:22:37.959Z,11.60
2017-10-07T17:25:05.757Z,11.60
2017-10-07T17:27:33.486Z,11.60
2017-10-07T17:30:01.249Z,11.70
2017-10-07T17:32:28.801Z,11.70
2017-10-07T17:34:56.387Z,11.70
2017-10-07T17:37:24.001Z,11.70
2017-10-07T17:39:52.330Z,11.60
2017-10-07T17:42:19.926Z,11.60
2017-10-07T17:44:47.520Z,11.60
2017-10-07T17:47:15.121Z,11.60
2017-10-07T17:49:42.755Z,11.50
2017-10-07T17:52:11.141Z,11.50
2017-10-07T17:54:39.671Z,11.50
2017-10-07T17:57:07.245Z,11.50
2017-10-07T17:59:34.973Z,11.50
2017-10-07T18:02:02.608Z,11.60
2017-10-07T18:04:31.009Z,11.60
2017-10-07T18:07:00.121Z,11.60
2017-10-07T18:09:27.714Z,11.60
2017-10-07T18:11:55.308Z,11.60
2017-10-07T18:14:23.667Z,11.60
2017-10-07T18:16:51.242Z,11.60
2017-10-07T18:19:18.919Z,11.50
2017-10-07T18:21:49.316Z,11.60
2017-10-07T18:24:16.953Z,11.60
2017-10-07T18:26:44.585Z,11.60
2017-10-07T18:29:12.995Z,11.60
2017-10-07T18:31:41.376Z,11.60
2017-10-07T18:34:09.731Z,11.60
2017-10-07T18:36:37.331Z,11.60
2017-10-07T18:39:05.326Z,11.60
2017-10-07T18:41:32.938Z,11.60
2017-10-07T18:44:00.683Z,11.70
2017-10-07T18:46:28.825Z,11.70
2017-10-07T18:48:56.450Z,11.70
2017-10-07T18:51:24.020Z,11.80
2017-10-07T18:53:52.351Z,11.70
2017-10-07T18:56:19.954Z,11.60
2017-10-07T18:58:48.317Z,11.70
2017-10-07T19:01:15.916Z,11.60
2017-10-07T19:03:44.317Z,11.70
2017-10-07T19:06:11.907Z,11.70
2017-10-07T19:08:39.615Z,11.70
2017-10-07T19:11:07.223Z,11.70
2017-10-07T19:13:35.025Z,11.70
2017-10-07T19:16:02.648Z,11.70
2017-10-07T19:18:30.256Z,11.70
2017-10-07T19:20:57.919Z,11.70
2017-10-07T19:23:25.485Z,11.70
2017-10-07T19:25:53.143Z,11.70
2017-10-07T19:28:20.733Z,11.70
2017-10-07T19:30:48.490Z,11.70
2017-10-07T19:33:16.147Z,11.70
2017-10-07T19:35:43.744Z,11.70
2017-10-07T19:38:12.110Z,11.80
2017-10-07T19:40:39.727Z,11.70
2017-10-07T19:43:07.411Z,11.70
2017-10-07T19:45:36.116Z,11.70
2017-10-07T19:48:03.922Z,11.70
2017-10-07T19:50:31.581Z,11.70
2017-10-07T19:53:01.086Z,11.70
2017-10-07T19:55:35.328Z,11.70
2017-10-07T19:58:03.683Z,11.60
2017-10-07T20:00:31.571Z,11.60
2017-10-07T20:02:59.944Z,11.70
2017-10-07T20:05:37.145Z,11.70
2017-10-07T20:08:05.867Z,11.70
2017-10-07T20:10:33.686Z,11.70
2017-10-07T20:13:01.308Z,11.70
2017-10-07T20:15:30.521Z,11.70
2017-10-07T20:17:59.908Z,11.70
2017-10-07T20:20:27.485Z,11.70
2017-10-07T20:22:55.058Z,11.70
2017-10-07T20:25:22.703Z,11.70
2017-10-07T20:27:51.930Z,11.70
2017-10-07T20:30:19.572Z,11.60
2017-10-07T20:32:47.186Z,11.70
2017-10-07T20:35:15.505Z,11.70
2017-10-07T20:37:43.082Z,11.70
2017-10-07T20:40:10.684Z,11.70
2017-10-07T20:42:38.310Z,11.70
2017-10-07T20:45:05.978Z,11.70
2017-10-07T20:47:33.590Z,11.70
2017-10-07T20:50:01.335Z,11.70
2017-10-07T20:52:29.010Z,11.60
2017-10-07T20:54:56.785Z,11.60
2017-10-07T20:57:24.371Z,11.60
2017-10-07T20:59:52.712Z,11.60
2017-10-07T21:02:20.383Z,11.60
2017-10-07T21:04:48.019Z,11.60
2017-10-07T21:07:15.608Z,11.60
2017-10-07T21:09:43.227Z,11.60
2017-10-07T21:12:10.814Z,11.50
2017-10-07T21:14:38.515Z,11.60
2017-10-07T21:17:06.362Z,11.60
2017-10-07T21:19:34.488Z,11.50
2017-10-07T21:22:03.405Z,11.60
2017-10-07T21:24:31.266Z,11.60
2017-10-07T21:26:59.629Z,11.60
2017-10-07T21:29:27.427Z,11.60
2017-10-07T21:31:55.031Z,11.60
2017-10-07T21:34:22.603Z,11.60
2017-10-07T21:36:50.194Z,11.60
2017-10-07T21:39:18.555Z,11.60
2017-10-07T21:41:46.127Z,11.60
2017-10-07T21:44:13.731Z,11.60
2017-10-07T21:46:41.400Z,11.60
2017-10-07T21:49:09.003Z,11.60
2017-10-07T21:51:36.635Z,11.60
2017-10-07T21:54:04.257Z,11.60
2017-10-07T21:56:31.865Z,11.50
2017-10-07T21:58:59.676Z,11.50
2017-10-07T22:01:27.296Z,11.50
2017-10-07T22:03:54.870Z,11.60
2017-10-07T22:06:22.477Z,11.60
2017-10-07T22:08:50.069Z,11.60
2017-10-07T22:11:18.419Z,11.60
2017-10-07T22:13:45.991Z,11.60
2017-10-07T22:16:13.567Z,11.60
2017-10-07T22:18:41.164Z,11.60
2017-10-07T22:21:08.745Z,11.60
2017-10-07T22:23:36.473Z,11.60
2017-10-07T22:26:04.871Z,11.60
2017-10-07T22:28:32.448Z,11.60
2017-10-07T22:31:01.759Z,11.60
2017-10-07T22:33:29.631Z,11.60
2017-10-07T22:35:57.207Z,11.60
2017-10-07T22:38:24.798Z,11.60
2017-10-07T22:40:52.477Z,11.60
2017-10-07T22:43:20.145Z,11.60
2017-10-07T22:45:48.498Z,11.60
2017-10-07T22:48:16.060Z,11.60
2017-10-07T22:50:43.682Z,11.60
2017-10-07T22:53:12.019Z,11.60
2017-10-07T22:55:39.623Z,11.60
2017-10-07T22:58:07.196Z,11.60
2017-10-07T23:00:34.765Z,11.70
2017-10-07T23:03:02.376Z,11.70
2017-10-07T23:05:34.278Z,11.70
2017-10-07T23:08:01.837Z,11.70
2017-10-07T23:10:31.169Z,11.70
2017-10-07T23:12:58.771Z,11.70
2017-10-07T23:15:26.389Z,11.70
2017-10-07T23:17:53.946Z,11.70
2017-10-07T23:20:21.542Z,11.70
2017-10-07T23:22:49.151Z,11.70
2017-10-07T23:25:17.472Z,11.70
2017-10-07T23:27:45.030Z,11.70
2017-10-07T23:30:12.643Z,11.80
2017-10-07T23:32:40.209Z,11.70
2017-10-07T23:35:07.812Z,11.80
2017-10-07T23:37:35.400Z,11.80
2017-10-07T23:40:03.046Z,11.80
2017-10-07T23:42:30.640Z,11.80
2017-10-07T23:44:58.282Z,11.80
2017-10-07T23:47:25.869Z,11.80
2017-10-07T23:49:53.474Z,11.80
2017-10-07T23:52:22.131Z,11.80
2017-10-07T23:54:49.710Z,11.80
2017-10-07T23:57:17.324Z,11.80
2017-10-07T23:59:44.882Z,11.80
